createdAt,value
2019-05-05T00:00:06.780Z,0.00
2019-05-05T00:01:06.773Z,0.00
2019-05-05T00:02:06.760Z,0.00
2019-05-05T00:03:06.785Z,0.00
2019-05-05T00:04:06.771Z,0.00
2019-05-05T00:05:08.541Z,0.00
2019-05-05T00:06:06.719Z,0.00
2019-05-05T00:07:06.724Z,0.00
2019-05-05T00:08:06.718Z,0.00
2019-05-05T00:09:06.692Z,0.00
2019-05-05T00:10:06.712Z,0.00
2019-05-05T00:11:06.673Z,0.00
2019-05-05T00:12:06.693Z,0.00
2019-05-05T00:13:06.665Z,0.00
2019-05-05T00:14:06.647Z,0.00
2019-05-05T00:15:06.654Z,0.00
2019-05-05T00:16:06.646Z,0.00
2019-05-05T00:17:06.619Z,0.00
2019-05-05T00:18:06.619Z,0.00
2019-05-05T00:19:06.584Z,0.00
2019-05-05T00:20:06.591Z,0.00
2019-05-05T00:21:06.560Z,0.00
2019-05-05T00:22:06.560Z,0.00
2019-05-05T00:23:06.567Z,0.00
2019-05-05T00:24:06.526Z,0.00
2019-05-05T00:25:06.529Z,0.00
2019-05-05T00:26:06.505Z,0.00
2019-05-05T00:27:06.516Z,0.00
2019-05-05T00:28:06.518Z,0.00
2019-05-05T00:29:06.485Z,0.00
2019-05-05T00:30:06.491Z,0.00
2019-05-05T00:31:06.474Z,0.00
2019-05-05T00:32:06.448Z,0.00
2019-05-05T00:33:06.459Z,0.00
2019-05-05T00:34:06.444Z,0.00
2019-05-05T00:35:06.424Z,0.00
2019-05-05T00:36:07.839Z,0.00
2019-05-05T00:37:06.408Z,0.00
2019-05-05T00:38:06.478Z,0.00
2019-05-05T00:39:06.421Z,0.00
2019-05-05T00:40:06.357Z,0.00
2019-05-05T00:41:06.361Z,0.00
2019-05-05T00:42:06.351Z,0.00
2019-05-05T00:43:06.368Z,0.00
2019-05-05T00:44:06.378Z,0.00
2019-05-05T00:45:06.302Z,0.00
2019-05-05T00:46:06.316Z,0.00
2019-05-05T00:47:06.280Z,0.00
2019-05-05T00:48:06.315Z,0.00
2019-05-05T00:49:06.264Z,0.00
2019-05-05T00:50:06.287Z,0.00
2019-05-05T00:51:06.284Z,0.00
2019-05-05T00:52:06.242Z,0.00
2019-05-05T00:53:06.257Z,0.00
2019-05-05T00:54:06.210Z,0.00
2019-05-05T00:55:06.216Z,0.00
2019-05-05T00:56:06.203Z,0.00
2019-05-05T00:57:06.231Z,0.00
2019-05-05T00:58:06.170Z,0.00
2019-05-05T00:59:06.195Z,0.00
2019-05-05T01:00:06.147Z,0.00
2019-05-05T01:01:06.154Z,0.00
2019-05-05T01:02:06.128Z,0.00
2019-05-05T01:03:06.124Z,0.00
2019-05-05T01:04:06.170Z,0.00
2019-05-05T01:05:06.099Z,0.00
2019-05-05T01:06:06.091Z,0.00
2019-05-05T01:07:06.073Z,0.00
2019-05-05T01:08:06.072Z,0.00
2019-05-05T01:09:06.076Z,0.00
2019-05-05T01:10:06.075Z,0.00
2019-05-05T01:11:06.025Z,0.00
2019-05-05T01:12:06.037Z,0.00
2019-05-05T01:13:06.012Z,0.00
2019-05-05T01:14:06.023Z,0.00
2019-05-05T01:15:06.004Z,0.00
2019-05-05T01:16:05.988Z,0.00
2019-05-05T01:17:05.979Z,0.00
2019-05-05T01:18:05.960Z,0.00
2019-05-05T01:19:05.982Z,0.00
2019-05-05T01:20:06.893Z,0.00
2019-05-05T01:21:05.923Z,0.00
2019-05-05T01:22:05.916Z,0.00
2019-05-05T01:23:05.902Z,0.00
2019-05-05T01:24:05.964Z,0.00
2019-05-05T01:25:05.888Z,0.00
2019-05-05T01:26:05.879Z,0.00
2019-05-05T01:27:05.872Z,0.00
2019-05-05T01:28:05.853Z,0.00
2019-05-05T01:29:05.892Z,0.00
2019-05-05T01:30:05.874Z,0.00
2019-05-05T01:31:05.836Z,0.00
2019-05-05T01:32:05.810Z,0.00
2019-05-05T01:33:05.805Z,0.00
2019-05-05T01:34:05.794Z,0.00
2019-05-05T01:35:05.840Z,0.00
2019-05-05T01:36:05.770Z,0.00
2019-05-05T01:37:05.781Z,0.00
2019-05-05T01:38:05.750Z,0.00
2019-05-05T01:39:05.733Z,0.00
2019-05-05T01:40:05.774Z,0.00
2019-05-05T01:41:05.722Z,0.00
2019-05-05T01:42:05.711Z,0.00
2019-05-05T01:43:05.705Z,0.00
2019-05-05T01:44:05.714Z,0.00
2019-05-05T01:45:05.687Z,0.00
2019-05-05T01:46:05.670Z,0.00
2019-05-05T01:47:05.654Z,0.00
2019-05-05T01:48:05.637Z,0.00
2019-05-05T01:49:05.633Z,0.00
2019-05-05T01:50:17.602Z,0.00
2019-05-05T01:51:06.612Z,0.00
2019-05-05T01:52:05.599Z,0.00
2019-05-05T01:53:05.593Z,0.00
2019-05-05T01:54:05.575Z,0.00
2019-05-05T01:55:05.613Z,0.00
2019-05-05T01:56:05.562Z,0.00
2019-05-05T01:57:05.652Z,0.00
2019-05-05T01:58:05.540Z,0.00
2019-05-05T01:59:05.517Z,0.00
2019-05-05T02:00:05.529Z,0.00
2019-05-05T02:01:05.548Z,0.00
2019-05-05T02:02:05.489Z,0.00
2019-05-05T02:03:05.488Z,0.00
2019-05-05T02:04:05.699Z,0.00
2019-05-05T02:05:05.476Z,0.00
2019-05-05T02:06:05.484Z,0.00
2019-05-05T02:07:05.585Z,0.00
2019-05-05T02:08:05.427Z,0.00
2019-05-05T02:09:05.422Z,0.00
2019-05-05T02:10:06.172Z,0.00
2019-05-05T02:11:05.416Z,0.00
2019-05-05T02:12:05.445Z,0.00
2019-05-05T02:13:05.437Z,0.00
2019-05-05T02:14:05.381Z,0.00
2019-05-05T02:15:05.365Z,0.00
2019-05-05T02:16:05.344Z,0.00
2019-05-05T02:17:05.342Z,0.00
2019-05-05T02:18:05.331Z,0.00
2019-05-05T02:19:05.353Z,0.00
2019-05-05T02:20:05.420Z,0.00
2019-05-05T02:21:05.367Z,0.00
2019-05-05T02:22:05.514Z,0.00
2019-05-05T02:23:05.290Z,0.00
2019-05-05T02:24:05.512Z,0.00
2019-05-05T02:25:05.249Z,0.00
2019-05-05T02:26:05.266Z,0.00
2019-05-05T02:27:05.362Z,0.00
2019-05-05T02:28:05.233Z,0.00
2019-05-05T02:29:05.213Z,0.00
2019-05-05T02:30:06.430Z,0.00
2019-05-05T02:31:05.688Z,0.00
2019-05-05T02:32:06.219Z,0.00
2019-05-05T02:33:06.345Z,0.00
2019-05-05T02:34:05.530Z,0.00
2019-05-05T02:35:06.486Z,0.00
2019-05-05T02:36:05.715Z,0.00
2019-05-05T02:37:05.606Z,0.00
2019-05-05T02:38:06.592Z,0.00
2019-05-05T02:39:05.536Z,0.00
2019-05-05T02:40:07.530Z,0.00
2019-05-05T02:41:05.441Z,0.00
2019-05-05T02:42:05.879Z,0.00
2019-05-05T02:43:05.590Z,0.00
2019-05-05T02:44:05.316Z,0.00
2019-05-05T02:45:05.713Z,0.00
2019-05-05T02:46:05.635Z,0.00
2019-05-05T02:47:05.049Z,0.00
2019-05-05T02:48:06.067Z,0.00
2019-05-05T02:49:05.648Z,0.00
2019-05-05T02:50:05.440Z,0.00
2019-05-05T02:51:06.954Z,0.00
2019-05-05T02:52:05.223Z,0.00
2019-05-05T02:53:05.016Z,0.00
2019-05-05T02:54:04.949Z,0.00
2019-05-05T02:55:04.936Z,0.00
2019-05-05T02:56:04.959Z,0.00
2019-05-05T02:57:04.909Z,0.00
2019-05-05T02:58:04.914Z,0.00
2019-05-05T02:59:04.890Z,0.00
2019-05-05T03:00:04.893Z,0.00
2019-05-05T03:01:05.011Z,0.00
2019-05-05T03:02:04.877Z,0.00
2019-05-05T03:03:04.847Z,0.00
2019-05-05T03:04:04.842Z,0.00
2019-05-05T03:05:04.824Z,0.00
2019-05-05T03:06:04.830Z,0.00
2019-05-05T03:07:04.866Z,0.00
2019-05-05T03:08:04.938Z,0.00
2019-05-05T03:09:04.843Z,0.00
2019-05-05T03:10:04.777Z,0.00
2019-05-05T03:11:04.776Z,0.00
2019-05-05T03:12:05.006Z,0.00
2019-05-05T03:13:04.951Z,0.00
2019-05-05T03:14:04.732Z,0.00
2019-05-05T03:15:04.723Z,5.62
2019-05-05T03:16:04.706Z,5.62
2019-05-05T03:17:04.759Z,5.62
2019-05-05T03:18:04.697Z,5.62
2019-05-05T03:19:04.690Z,5.62
2019-05-05T03:20:04.666Z,5.62
2019-05-05T03:21:07.374Z,5.62
2019-05-05T03:22:04.666Z,11.25
2019-05-05T03:23:04.654Z,11.25
2019-05-05T03:24:04.646Z,11.25
2019-05-05T03:25:04.753Z,11.25
2019-05-05T03:26:04.607Z,11.25
2019-05-05T03:27:04.613Z,11.25
2019-05-05T03:28:04.583Z,16.88
2019-05-05T03:29:04.842Z,16.88
2019-05-05T03:30:05.224Z,16.88
2019-05-05T03:31:05.150Z,22.50
2019-05-05T03:32:05.752Z,22.50
2019-05-05T03:33:05.630Z,22.50
2019-05-05T03:34:05.905Z,22.50
2019-05-05T03:35:04.522Z,28.12
2019-05-05T03:36:04.528Z,28.12
2019-05-05T03:37:04.495Z,28.12
2019-05-05T03:38:04.513Z,33.75
2019-05-05T03:39:05.173Z,33.75
2019-05-05T03:40:04.455Z,33.75
2019-05-05T03:41:04.454Z,39.38
2019-05-05T03:42:04.430Z,39.38
2019-05-05T03:43:04.446Z,39.38
2019-05-05T03:44:04.836Z,45.00
2019-05-05T03:45:04.406Z,45.00
2019-05-05T03:46:04.514Z,50.62
2019-05-05T03:47:04.404Z,50.62
2019-05-05T03:48:04.662Z,50.62
2019-05-05T03:49:04.889Z,56.25
2019-05-05T03:50:04.485Z,56.25
2019-05-05T03:51:17.446Z,61.88
2019-05-05T03:52:05.334Z,61.88
2019-05-05T03:53:04.973Z,61.88
2019-05-05T03:54:04.550Z,67.50
2019-05-05T03:55:04.295Z,67.50
2019-05-05T03:56:04.285Z,67.50
2019-05-05T03:57:04.272Z,73.12
2019-05-05T03:58:04.292Z,73.12
2019-05-05T03:59:04.849Z,78.75
2019-05-05T04:00:04.487Z,78.75
2019-05-05T04:01:04.350Z,84.38
2019-05-05T04:02:04.236Z,84.38
2019-05-05T04:03:04.368Z,90.00
2019-05-05T04:04:04.197Z,95.62
2019-05-05T04:05:04.195Z,95.62
2019-05-05T04:06:04.424Z,101.25
2019-05-05T04:07:04.844Z,101.25
2019-05-05T04:08:04.191Z,101.25
2019-05-05T04:09:04.338Z,106.88
2019-05-05T04:10:04.144Z,118.12
2019-05-05T04:11:04.120Z,123.75
2019-05-05T04:12:04.570Z,129.38
2019-05-05T04:13:04.752Z,129.38
2019-05-05T04:14:04.106Z,129.38
2019-05-05T04:15:04.088Z,135.00
2019-05-05T04:16:04.115Z,135.00
2019-05-05T04:17:04.057Z,129.38
2019-05-05T04:18:04.110Z,135.00
2019-05-05T04:19:04.063Z,140.62
2019-05-05T04:20:04.063Z,163.12
2019-05-05T04:21:04.077Z,168.75
2019-05-05T04:22:04.313Z,180.00
2019-05-05T04:23:04.032Z,185.62
2019-05-05T04:24:04.150Z,180.00
2019-05-05T04:25:04.651Z,174.38
2019-05-05T04:26:04.005Z,157.50
2019-05-05T04:27:04.144Z,163.12
2019-05-05T04:28:04.512Z,168.75
2019-05-05T04:29:05.357Z,180.00
2019-05-05T04:30:03.974Z,185.62
2019-05-05T04:31:04.264Z,180.00
2019-05-05T04:32:04.602Z,191.25
2019-05-05T04:33:03.931Z,202.50
2019-05-05T04:34:04.248Z,202.50
2019-05-05T04:35:03.868Z,219.38
2019-05-05T04:36:03.998Z,225.00
2019-05-05T04:37:04.250Z,219.38
2019-05-05T04:38:04.777Z,241.88
2019-05-05T04:39:03.881Z,258.75
2019-05-05T04:40:04.192Z,241.88
2019-05-05T04:41:03.851Z,236.25
2019-05-05T04:42:04.788Z,225.00
2019-05-05T04:43:04.036Z,219.38
2019-05-05T04:44:04.067Z,213.75
2019-05-05T04:45:04.297Z,225.00
2019-05-05T04:46:04.542Z,236.25
2019-05-05T04:47:03.930Z,225.00
2019-05-05T04:48:04.321Z,225.00
2019-05-05T04:49:03.787Z,230.62
2019-05-05T04:50:04.327Z,230.62
2019-05-05T04:51:04.777Z,230.62
2019-05-05T04:52:04.174Z,230.62
2019-05-05T04:53:04.550Z,230.62
2019-05-05T04:54:03.930Z,236.25
2019-05-05T04:55:04.002Z,241.88
2019-05-05T04:56:04.290Z,247.50
2019-05-05T04:57:04.505Z,258.75
2019-05-05T04:58:04.647Z,258.75
2019-05-05T04:59:04.071Z,264.38
2019-05-05T05:00:04.167Z,298.12
2019-05-05T05:01:04.668Z,331.88
2019-05-05T05:02:04.047Z,320.62
2019-05-05T05:03:04.437Z,303.75
2019-05-05T05:04:03.794Z,315.00
2019-05-05T05:05:04.081Z,331.88
2019-05-05T05:06:04.169Z,315.00
2019-05-05T05:07:04.664Z,331.88
2019-05-05T05:08:03.830Z,315.00
2019-05-05T05:09:04.039Z,309.38
2019-05-05T05:10:04.438Z,315.00
2019-05-05T05:11:03.749Z,320.62
2019-05-05T05:12:04.129Z,343.12
2019-05-05T05:13:04.632Z,393.75
2019-05-05T05:14:03.937Z,421.88
2019-05-05T05:15:04.320Z,416.25
2019-05-05T05:16:04.514Z,483.75
2019-05-05T05:17:03.563Z,613.12
2019-05-05T05:18:04.114Z,691.88
2019-05-05T05:19:04.305Z,708.75
2019-05-05T05:20:03.823Z,663.75
2019-05-05T05:21:03.997Z,652.50
2019-05-05T05:22:04.953Z,770.62
2019-05-05T05:23:03.734Z,826.88
2019-05-05T05:24:04.021Z,860.62
2019-05-05T05:25:04.459Z,905.62
2019-05-05T05:26:05.117Z,967.50
2019-05-05T05:27:05.021Z,1046.25
2019-05-05T05:28:04.200Z,1170.00
2019-05-05T05:29:04.541Z,1350.00
2019-05-05T05:30:04.675Z,1642.50
2019-05-05T05:31:03.896Z,2047.50
2019-05-05T05:32:04.195Z,2446.88
2019-05-05T05:33:04.362Z,2503.12
2019-05-05T05:34:04.409Z,2064.38
2019-05-05T05:35:03.775Z,1726.88
2019-05-05T05:36:04.068Z,1665.00
2019-05-05T05:37:04.214Z,1726.88
2019-05-05T05:38:04.671Z,1698.75
2019-05-05T05:39:03.509Z,1524.38
2019-05-05T05:40:03.952Z,1344.38
2019-05-05T05:41:04.228Z,1395.00
2019-05-05T05:42:04.523Z,1276.88
2019-05-05T05:43:04.704Z,1209.38
2019-05-05T05:44:03.656Z,1220.62
2019-05-05T05:45:04.110Z,1231.88
2019-05-05T05:46:04.372Z,1271.25
2019-05-05T05:47:03.667Z,1288.12
2019-05-05T05:48:04.097Z,1316.25
2019-05-05T05:49:04.513Z,1350.00
2019-05-05T05:50:04.044Z,1406.25
2019-05-05T05:51:04.189Z,1445.62
2019-05-05T05:52:15.165Z,1456.88
2019-05-05T05:53:04.753Z,1445.62
2019-05-05T05:54:03.765Z,1456.88
2019-05-05T05:55:04.100Z,1473.75
2019-05-05T05:56:04.351Z,1496.25
2019-05-05T05:57:04.305Z,1518.75
2019-05-05T05:58:04.803Z,1524.38
2019-05-05T05:59:03.616Z,1530.00
2019-05-05T06:00:04.066Z,1552.50
2019-05-05T06:01:04.331Z,1586.25
2019-05-05T06:02:11.479Z,1608.75
2019-05-05T06:03:04.117Z,1608.75
2019-05-05T06:04:04.060Z,1608.75
2019-05-05T06:05:04.342Z,1614.38
2019-05-05T06:06:04.769Z,1614.38
2019-05-05T06:07:04.074Z,1608.75
2019-05-05T06:08:04.802Z,1597.50
2019-05-05T06:09:04.305Z,1597.50
2019-05-05T06:10:03.669Z,1620.00
2019-05-05T06:11:04.468Z,1648.12
2019-05-05T06:12:03.611Z,1670.62
2019-05-05T06:13:04.110Z,1693.12
2019-05-05T06:14:04.027Z,1687.50
2019-05-05T06:15:03.846Z,1659.38
2019-05-05T06:16:04.282Z,1648.12
2019-05-05T06:17:04.239Z,1681.88
2019-05-05T06:18:04.663Z,1715.62
2019-05-05T06:19:03.684Z,1760.62
2019-05-05T06:20:04.080Z,1867.50
2019-05-05T06:21:04.530Z,1839.38
2019-05-05T06:22:03.513Z,1867.50
2019-05-05T06:23:04.077Z,1906.88
2019-05-05T06:24:04.511Z,1929.38
2019-05-05T06:25:06.130Z,1935.00
2019-05-05T06:26:06.649Z,1929.38
2019-05-05T06:27:03.754Z,1946.25
2019-05-05T06:28:04.310Z,1957.50
2019-05-05T06:29:04.383Z,1968.75
2019-05-05T06:30:04.486Z,1951.88
2019-05-05T06:31:04.610Z,1957.50
2019-05-05T06:32:04.001Z,1974.38
2019-05-05T06:33:04.718Z,2002.50
2019-05-05T06:34:03.710Z,2047.50
2019-05-05T06:35:03.667Z,2058.75
2019-05-05T06:36:03.760Z,2053.12
2019-05-05T06:37:04.248Z,2036.25
2019-05-05T06:38:04.478Z,2041.88
2019-05-05T06:39:04.470Z,2075.62
2019-05-05T06:40:03.780Z,2143.12
2019-05-05T06:41:04.233Z,2205.00
2019-05-05T06:42:04.369Z,2266.88
2019-05-05T06:43:04.395Z,2283.75
2019-05-05T06:44:03.764Z,2261.25
2019-05-05T06:45:04.147Z,2261.25
2019-05-05T06:46:04.052Z,2244.38
2019-05-05T06:47:04.444Z,2250.00
2019-05-05T06:48:04.287Z,2250.00
2019-05-05T06:49:04.222Z,2272.50
2019-05-05T06:50:03.701Z,2306.25
2019-05-05T06:51:03.965Z,2306.25
2019-05-05T06:52:04.063Z,2306.25
2019-05-05T06:53:04.248Z,2278.12
2019-05-05T06:54:04.505Z,2278.12
2019-05-05T06:55:03.745Z,2289.38
2019-05-05T06:56:04.072Z,2317.50
2019-05-05T06:57:04.340Z,2351.25
2019-05-05T06:58:04.465Z,2413.12
2019-05-05T06:59:04.309Z,2463.75
2019-05-05T07:00:03.686Z,2458.12
2019-05-05T07:01:03.650Z,2475.00
2019-05-05T07:02:04.239Z,2480.62
2019-05-05T07:03:05.755Z,2508.75
2019-05-05T07:04:03.523Z,2514.38
2019-05-05T07:05:04.091Z,2503.12
2019-05-05T07:06:04.359Z,2497.50
2019-05-05T07:07:02.280Z,2525.62
2019-05-05T07:08:04.234Z,2508.75
2019-05-05T07:09:02.228Z,2508.75
2019-05-05T07:10:03.751Z,2559.38
2019-05-05T07:11:04.085Z,2581.88
2019-05-05T07:12:04.303Z,2593.12
2019-05-05T07:13:02.205Z,2610.00
2019-05-05T07:14:03.723Z,2643.75
2019-05-05T07:15:04.126Z,2660.62
2019-05-05T07:16:02.145Z,2705.62
2019-05-05T07:17:02.139Z,2711.25
2019-05-05T07:18:03.714Z,2745.00
2019-05-05T07:19:04.225Z,2795.62
2019-05-05T07:20:03.754Z,2835.00
2019-05-05T07:21:03.651Z,2823.75
2019-05-05T07:22:04.098Z,2812.50
2019-05-05T07:23:05.027Z,2778.75
2019-05-05T07:24:03.938Z,2728.12
2019-05-05T07:25:02.053Z,2840.62
2019-05-05T07:26:04.160Z,2947.50
2019-05-05T07:27:02.031Z,3020.62
2019-05-05T07:28:04.104Z,2975.62
2019-05-05T07:29:02.032Z,2930.62
2019-05-05T07:30:02.097Z,2941.88
2019-05-05T07:31:04.179Z,2885.62
2019-05-05T07:32:03.924Z,2840.62
2019-05-05T07:33:04.443Z,2851.88
2019-05-05T07:34:01.959Z,2902.50
2019-05-05T07:35:03.951Z,2958.75
2019-05-05T07:36:05.842Z,2975.62
2019-05-05T07:37:03.843Z,3015.00
2019-05-05T07:38:01.925Z,3003.75
2019-05-05T07:39:03.850Z,1884.38
2019-05-05T07:40:04.100Z,3003.75
2019-05-05T07:41:03.658Z,3099.38
2019-05-05T07:42:01.875Z,3116.25
2019-05-05T07:43:01.947Z,3256.88
2019-05-05T07:44:01.871Z,3279.38
2019-05-05T07:45:04.087Z,3307.50
2019-05-05T07:46:01.845Z,3324.38
2019-05-05T07:47:03.659Z,3313.12
2019-05-05T07:48:01.848Z,3375.00
2019-05-05T07:49:03.716Z,3369.38
2019-05-05T07:50:04.007Z,3313.12
2019-05-05T07:51:05.124Z,3296.25
2019-05-05T07:52:03.946Z,3245.62
2019-05-05T07:53:12.242Z,3161.25
2019-05-05T07:54:03.818Z,3127.50
2019-05-05T07:55:03.617Z,3099.38
2019-05-05T07:56:03.580Z,3060.00
2019-05-05T07:57:01.733Z,3026.25
2019-05-05T07:58:01.700Z,3076.88
2019-05-05T07:59:03.814Z,3262.50
2019-05-05T08:00:01.687Z,3476.25
2019-05-05T08:01:01.682Z,3650.62
2019-05-05T08:02:03.878Z,3785.62
2019-05-05T08:03:03.595Z,3858.75
2019-05-05T08:04:01.675Z,3943.12
2019-05-05T08:05:01.626Z,3982.50
2019-05-05T08:06:03.813Z,804.38
2019-05-05T08:07:01.610Z,4050.00
2019-05-05T08:08:01.591Z,3960.00
2019-05-05T08:09:03.933Z,3920.62
2019-05-05T08:10:01.585Z,3813.75
2019-05-05T08:11:01.574Z,3751.88
2019-05-05T08:12:01.567Z,3740.62
2019-05-05T08:13:01.558Z,1918.12
2019-05-05T08:14:03.845Z,1091.25
2019-05-05T08:15:01.531Z,1299.38
2019-05-05T08:16:03.680Z,3650.62
2019-05-05T08:17:01.499Z,3566.25
2019-05-05T08:18:01.508Z,3645.00
2019-05-05T08:19:03.739Z,3909.38
2019-05-05T08:20:03.855Z,4123.12
2019-05-05T08:21:01.496Z,4303.12
2019-05-05T08:22:03.533Z,4443.75
2019-05-05T08:23:01.428Z,4556.25
2019-05-05T08:24:01.416Z,4477.50
2019-05-05T08:25:01.436Z,4359.38
2019-05-05T08:26:01.435Z,3650.62
2019-05-05T08:27:01.612Z,1850.62
2019-05-05T08:28:01.385Z,2705.62
2019-05-05T08:29:01.396Z,1738.12
2019-05-05T08:30:03.116Z,905.62
2019-05-05T08:31:01.351Z,866.25
2019-05-05T08:32:01.354Z,838.12
2019-05-05T08:33:01.324Z,1001.25
2019-05-05T08:34:01.328Z,838.12
2019-05-05T08:35:01.400Z,798.75
2019-05-05T08:36:01.333Z,826.88
2019-05-05T08:37:01.287Z,804.38
2019-05-05T08:38:01.285Z,2221.88
2019-05-05T08:39:01.261Z,1462.50
2019-05-05T08:40:01.307Z,1546.88
2019-05-05T08:41:01.296Z,1411.88
2019-05-05T08:42:01.231Z,1507.50
2019-05-05T08:43:01.220Z,1653.75
2019-05-05T08:44:01.209Z,1192.50
2019-05-05T08:45:01.242Z,1400.62
2019-05-05T08:46:01.216Z,1271.25
2019-05-05T08:47:01.184Z,1164.38
2019-05-05T08:48:01.216Z,1006.88
2019-05-05T08:49:01.161Z,984.38
2019-05-05T08:50:01.152Z,984.38
2019-05-05T08:51:01.159Z,838.12
2019-05-05T08:52:01.130Z,843.75
2019-05-05T08:53:01.115Z,804.38
2019-05-05T08:54:01.111Z,759.38
2019-05-05T08:55:01.119Z,725.62
2019-05-05T08:56:01.102Z,945.00
2019-05-05T08:57:01.077Z,658.12
2019-05-05T08:58:01.097Z,691.88
2019-05-05T08:59:01.047Z,793.12
2019-05-05T09:00:01.034Z,843.75
2019-05-05T09:01:01.050Z,866.25
2019-05-05T09:02:01.015Z,838.12
2019-05-05T09:03:01.010Z,855.00
2019-05-05T09:04:00.994Z,804.38
2019-05-05T09:05:00.996Z,810.00
2019-05-05T09:06:00.993Z,793.12
2019-05-05T09:07:00.970Z,849.38
2019-05-05T09:08:00.952Z,911.25
2019-05-05T09:09:00.972Z,978.75
2019-05-05T09:10:00.974Z,990.00
2019-05-05T09:11:00.959Z,1040.62
2019-05-05T09:12:00.913Z,1051.88
2019-05-05T09:13:00.918Z,1456.88
2019-05-05T09:14:00.902Z,1805.62
2019-05-05T09:15:00.907Z,787.50
2019-05-05T09:16:00.872Z,855.00
2019-05-05T09:17:00.900Z,680.62
2019-05-05T09:18:00.858Z,590.62
2019-05-05T09:19:00.843Z,855.00
2019-05-05T09:20:00.844Z,545.62
2019-05-05T09:21:00.822Z,1063.12
2019-05-05T09:22:00.866Z,871.88
2019-05-05T09:23:00.810Z,2829.38
2019-05-05T09:24:03.236Z,1366.88
2019-05-05T09:25:00.765Z,1080.00
2019-05-05T09:26:00.784Z,618.75
2019-05-05T09:27:00.802Z,596.25
2019-05-05T09:28:03.158Z,652.50
2019-05-05T09:29:01.771Z,618.75
2019-05-05T09:30:00.713Z,630.00
2019-05-05T09:31:00.706Z,652.50
2019-05-05T09:32:00.703Z,731.25
2019-05-05T09:33:00.710Z,871.88
2019-05-05T09:34:00.677Z,1029.38
2019-05-05T09:35:00.693Z,1243.12
2019-05-05T09:36:00.673Z,1119.38
2019-05-05T09:37:00.730Z,1231.88
2019-05-05T09:38:00.626Z,1040.62
2019-05-05T09:39:00.618Z,1040.62
2019-05-05T09:40:00.609Z,1040.62
2019-05-05T09:41:00.629Z,1074.38
2019-05-05T09:42:00.597Z,1023.75
2019-05-05T09:43:00.601Z,1006.88
2019-05-05T09:44:00.596Z,984.38
2019-05-05T09:45:00.569Z,905.62
2019-05-05T09:46:00.552Z,843.75
2019-05-05T09:47:00.551Z,838.12
2019-05-05T09:48:00.549Z,765.00
2019-05-05T09:49:00.547Z,720.00
2019-05-05T09:50:00.509Z,714.38
2019-05-05T09:51:00.500Z,720.00
2019-05-05T09:52:00.490Z,748.12
2019-05-05T09:53:00.485Z,781.88
2019-05-05T09:54:11.039Z,804.38
2019-05-05T09:55:03.666Z,787.50
2019-05-05T09:56:00.469Z,770.62
2019-05-05T09:57:00.431Z,787.50
2019-05-05T09:58:00.460Z,832.50
2019-05-05T09:59:00.429Z,838.12
2019-05-05T10:00:00.390Z,961.88
2019-05-05T10:01:00.411Z,956.25
2019-05-05T10:02:00.368Z,703.12
2019-05-05T10:03:00.408Z,691.88
2019-05-05T10:04:00.376Z,691.88
2019-05-05T10:05:00.340Z,708.75
2019-05-05T10:06:00.322Z,697.50
2019-05-05T10:07:00.333Z,697.50
2019-05-05T10:08:00.349Z,1040.62
2019-05-05T10:09:00.322Z,1023.75
2019-05-05T10:10:00.292Z,3138.75
2019-05-05T10:11:00.299Z,2992.50
2019-05-05T10:12:00.265Z,2458.12
2019-05-05T10:13:00.318Z,826.88
2019-05-05T10:14:00.257Z,888.75
2019-05-05T10:15:00.270Z,961.88
2019-05-05T10:16:00.218Z,1164.38
2019-05-05T10:17:00.206Z,1496.25
2019-05-05T10:18:00.214Z,1743.75
2019-05-05T10:19:00.203Z,1102.50
2019-05-05T10:20:00.212Z,1316.25
2019-05-05T10:21:00.163Z,1035.00
2019-05-05T10:22:00.182Z,950.62
2019-05-05T10:23:00.142Z,1006.88
2019-05-05T10:24:00.206Z,708.75
2019-05-05T10:25:00.126Z,669.38
2019-05-05T10:26:00.126Z,658.12
2019-05-05T10:27:00.100Z,641.25
2019-05-05T10:28:00.103Z,652.50
2019-05-05T10:29:01.230Z,669.38
2019-05-05T10:30:00.089Z,686.25
2019-05-05T10:31:00.059Z,748.12
2019-05-05T10:32:00.047Z,798.75
2019-05-05T10:33:00.061Z,849.38
2019-05-05T10:34:00.111Z,888.75
2019-05-05T10:35:00.014Z,911.25
2019-05-05T10:36:00.001Z,2210.62
2019-05-05T10:37:00.015Z,1440.00
2019-05-05T10:38:00.003Z,1845.00
2019-05-05T10:39:00.014Z,2570.62
2019-05-05T10:39:59.967Z,2081.25
2019-05-05T10:40:59.945Z,2086.88
2019-05-05T10:41:59.944Z,1215.00
2019-05-05T10:42:59.935Z,1198.12
2019-05-05T10:43:59.958Z,1389.38
2019-05-05T10:44:59.920Z,1153.12
2019-05-05T10:45:59.919Z,1395.00
2019-05-05T10:46:59.900Z,1147.50
2019-05-05T10:47:59.880Z,1085.62
2019-05-05T10:48:59.982Z,984.38
2019-05-05T10:49:59.885Z,928.12
2019-05-05T10:50:59.844Z,995.62
2019-05-05T10:52:03.780Z,1119.38
2019-05-05T10:52:59.850Z,1777.50
2019-05-05T10:53:59.807Z,1890.00
2019-05-05T10:54:59.827Z,1316.25
2019-05-05T10:55:59.794Z,3555.00
2019-05-05T10:56:59.794Z,1293.75
2019-05-05T10:57:59.773Z,2227.50
2019-05-05T10:58:59.758Z,1299.38
2019-05-05T11:00:11.685Z,1704.38
2019-05-05T11:01:00.735Z,3605.62
2019-05-05T11:01:59.745Z,4882.50
2019-05-05T11:02:59.713Z,4663.12
2019-05-05T11:03:59.710Z,2936.25
2019-05-05T11:04:59.714Z,1878.75
2019-05-05T11:05:59.673Z,3031.88
2019-05-05T11:06:59.697Z,4404.38
2019-05-05T11:07:59.667Z,3656.25
2019-05-05T11:08:59.649Z,3341.25
2019-05-05T11:09:59.665Z,4612.50
2019-05-05T11:10:59.631Z,2913.75
2019-05-05T11:11:59.659Z,3251.25
2019-05-05T11:12:59.625Z,4185.00
2019-05-05T11:13:59.597Z,4775.62
2019-05-05T11:14:59.591Z,5461.88
2019-05-05T11:15:59.609Z,4500.00
2019-05-05T11:16:59.594Z,5838.75
2019-05-05T11:17:59.559Z,5883.75
2019-05-05T11:18:59.558Z,5872.50
2019-05-05T11:19:59.536Z,5051.25
2019-05-05T11:20:59.565Z,3639.38
2019-05-05T11:21:59.510Z,5484.38
2019-05-05T11:22:59.508Z,5838.75
2019-05-05T11:23:59.493Z,2311.88
2019-05-05T11:25:01.142Z,5613.75
2019-05-05T11:25:59.501Z,4050.00
2019-05-05T11:26:59.460Z,5518.12
2019-05-05T11:27:59.461Z,1923.75
2019-05-05T11:28:59.458Z,1850.62
2019-05-05T11:29:59.430Z,5855.62
2019-05-05T11:30:59.439Z,1648.12
2019-05-05T11:31:59.415Z,1473.75
2019-05-05T11:32:59.397Z,1462.50
2019-05-05T11:33:59.393Z,1524.38
2019-05-05T11:34:59.383Z,1530.00
2019-05-05T11:35:59.399Z,2638.12
2019-05-05T11:36:59.380Z,2266.88
2019-05-05T11:37:59.356Z,1456.88
2019-05-05T11:38:59.357Z,2019.38
2019-05-05T11:39:59.346Z,5208.75
2019-05-05T11:40:59.387Z,1440.00
2019-05-05T11:41:59.302Z,2790.00
2019-05-05T11:42:59.299Z,5456.25
2019-05-05T11:43:59.276Z,1614.38
2019-05-05T11:44:59.288Z,5681.25
2019-05-05T11:45:59.364Z,5833.12
2019-05-05T11:46:59.254Z,5529.38
2019-05-05T11:47:59.237Z,4916.25
2019-05-05T11:48:59.232Z,3234.38
2019-05-05T11:49:59.215Z,1743.75
2019-05-05T11:50:59.233Z,1198.12
2019-05-05T11:51:59.244Z,1456.88
2019-05-05T11:52:59.206Z,1029.38
2019-05-05T11:53:59.192Z,810.00
2019-05-05T11:55:09.711Z,748.12
2019-05-05T11:56:00.177Z,753.75
2019-05-05T11:56:59.144Z,736.88
2019-05-05T11:57:59.138Z,776.25
2019-05-05T11:58:59.130Z,815.62
2019-05-05T11:59:59.118Z,843.75
2019-05-05T12:00:59.132Z,894.38
2019-05-05T12:01:59.094Z,939.38
2019-05-05T12:02:59.138Z,978.75
2019-05-05T12:03:59.076Z,1018.12
2019-05-05T12:04:59.060Z,1091.25
2019-05-05T12:05:59.069Z,1260.00
2019-05-05T12:06:59.071Z,4972.50
2019-05-05T12:07:59.045Z,5799.38
2019-05-05T12:08:59.028Z,5765.62
2019-05-05T12:09:59.105Z,5703.75
2019-05-05T12:10:59.004Z,5658.75
2019-05-05T12:11:59.018Z,2058.75
2019-05-05T12:12:58.993Z,2131.88
2019-05-05T12:13:58.981Z,1333.12
2019-05-05T12:14:58.975Z,973.12
2019-05-05T12:15:58.955Z,888.75
2019-05-05T12:16:58.982Z,849.38
2019-05-05T12:17:58.927Z,832.50
2019-05-05T12:18:58.933Z,866.25
2019-05-05T12:19:58.971Z,900.00
2019-05-05T12:20:58.904Z,978.75
2019-05-05T12:21:58.921Z,1012.50
2019-05-05T12:22:58.880Z,2643.75
2019-05-05T12:23:58.869Z,3346.88
2019-05-05T12:24:58.866Z,1080.00
2019-05-05T12:25:58.856Z,1085.62
2019-05-05T12:26:58.873Z,1006.88
2019-05-05T12:27:58.824Z,950.62
2019-05-05T12:28:58.829Z,877.50
2019-05-05T12:29:58.809Z,821.25
2019-05-05T12:30:58.823Z,787.50
2019-05-05T12:31:58.803Z,753.75